createdAt,value
2023-04-08T00:01:45.618Z,92012.22
2023-04-08T00:04:19.898Z,92011.97
2023-04-08T00:06:52.196Z,92007.06
2023-04-08T00:09:24.612Z,92017.13
2023-04-08T00:12:05.222Z,92017.09
2023-04-08T00:14:38.272Z,92009.88
2023-04-08T00:17:10.601Z,92008.59
2023-04-08T00:19:43.060Z,92005.75
2023-04-08T00:22:15.378Z,92005.47
2023-04-08T00:24:47.698Z,92007.53
2023-04-08T00:27:20.074Z,92007.25
2023-04-08T00:29:53.050Z,92008.03
2023-04-08T00:32:25.445Z,92004.44
2023-04-08T00:34:58.454Z,92000.78
2023-04-08T00:37:31.131Z,92004.91
2023-04-08T00:40:03.684Z,92003.63
2023-04-08T00:42:36.052Z,92004.44
2023-04-08T00:45:10.488Z,92006.72
2023-04-08T00:47:43.435Z,92006.72
2023-04-08T00:50:16.018Z,92004.91
2023-04-08T00:52:48.311Z,92006.44
2023-04-08T00:55:20.686Z,92001.28
2023-04-08T00:57:53.598Z,91996.13
2023-04-08T01:00:28.780Z,92007.19
2023-04-08T01:03:08.964Z,92001.25
2023-04-08T01:05:53.083Z,92005.16
2023-04-08T01:08:29.236Z,92008.47
2023-04-08T01:11:03.870Z,92009.25
2023-04-08T01:13:40.145Z,92000.50
2023-04-08T01:16:15.352Z,92009.53
2023-04-08T01:18:50.979Z,92019.59
2023-04-08T01:21:25.021Z,92009.28
2023-04-08T01:24:06.406Z,92007.13
2023-04-08T01:26:41.198Z,92006.28
2023-04-08T01:29:15.545Z,92008.59
2023-04-08T01:31:48.665Z,92008.59
2023-04-08T01:34:22.103Z,92011.97
2023-04-08T01:36:57.975Z,92013.28
2023-04-08T01:39:31.321Z,92016.13
2023-04-08T01:42:05.233Z,92016.88
2023-04-08T01:44:39.971Z,92022.81
2023-04-08T01:47:13.328Z,92023.34
2023-04-08T01:49:46.422Z,92021.53
2023-04-08T01:52:20.766Z,92029.78
2023-04-08T01:54:53.169Z,92028.72
2023-04-08T01:57:31.623Z,92025.06
2023-04-08T02:00:08.014Z,92031.25
2023-04-08T02:02:53.164Z,92035.69
2023-04-08T02:05:25.788Z,92039.06
2023-04-08T02:07:58.085Z,92038.31
2023-04-08T02:10:30.449Z,92039.59
2023-04-08T02:13:03.538Z,92042.72
2023-04-08T02:15:41.766Z,92030.06
2023-04-08T02:18:16.759Z,92044.84
2023-04-08T02:20:57.269Z,92050.28
2023-04-08T02:23:33.097Z,92048.72
2023-04-08T02:26:08.335Z,92038.69
2023-04-08T02:28:42.614Z,92045.66
2023-04-08T02:31:17.411Z,92049.50
2023-04-08T02:33:52.549Z,92049.00
2023-04-08T02:36:26.718Z,92039.19
2023-04-08T02:38:59.092Z,92045.13
2023-04-08T02:41:31.551Z,92045.91
2023-04-08T02:44:04.607Z,92046.16
2023-04-08T02:46:36.931Z,92042.28
2023-04-08T02:49:09.222Z,92042.28
2023-04-08T02:51:42.139Z,92037.13
2023-04-08T02:54:14.807Z,92044.59
2023-04-08T02:56:47.092Z,92044.38
2023-04-08T02:59:20.057Z,92046.72
2023-04-08T03:01:52.435Z,92036.38
2023-04-08T03:04:24.766Z,92042.56
2023-04-08T03:06:57.103Z,92039.97
2023-04-08T03:09:29.471Z,92039.44
2023-04-08T03:12:01.895Z,92029.88
2023-04-08T03:14:34.848Z,92036.34
2023-04-08T03:17:07.180Z,92035.03
2023-04-08T03:19:39.429Z,92041.22
2023-04-08T03:22:13.660Z,92014.91
2023-04-08T03:24:45.963Z,92031.97
2023-04-08T03:27:18.294Z,92037.38
2023-04-08T03:29:52.347Z,92029.63
2023-04-08T03:32:24.951Z,92023.41
2023-04-08T03:34:57.278Z,92037.09
2023-04-08T03:37:29.729Z,92031.44
2023-04-08T03:40:02.168Z,92035.84
2023-04-08T03:42:34.520Z,92035.28
2023-04-08T03:45:08.448Z,92034.53
2023-04-08T03:47:41.222Z,92025.25
2023-04-08T03:50:13.626Z,92027.56
2023-04-08T03:52:46.143Z,92031.66
2023-04-08T03:55:18.408Z,92030.13
2023-04-08T03:57:50.719Z,92033.97
2023-04-08T04:00:23.890Z,92036.25
2023-04-08T04:02:56.489Z,92036.53
2023-04-08T04:05:28.906Z,92037.84
2023-04-08T04:08:01.387Z,92037.16
2023-04-08T04:10:33.736Z,92040.75
2023-04-08T04:13:06.056Z,92043.34
2023-04-08T04:15:39.430Z,92025.78
2023-04-08T04:18:11.906Z,92041.78
2023-04-08T04:20:44.528Z,92049.53
2023-04-08T04:23:16.851Z,92055.59
2023-04-08T04:25:49.183Z,92049.38
2023-04-08T04:28:21.441Z,92048.63
2023-04-08T04:30:56.333Z,92054.25
2023-04-08T04:33:28.972Z,92045.25
2023-04-08T04:36:01.370Z,92024.81
2023-04-08T04:38:33.728Z,92051.00
2023-04-08T04:41:06.393Z,92049.78
2023-04-08T04:43:38.679Z,92022.91
2023-04-08T04:46:11.677Z,92049.81
2023-04-08T04:48:44.217Z,92050.91
2023-04-08T04:51:16.500Z,92046.81
2023-04-08T04:53:49.364Z,92048.38
2023-04-08T04:56:21.738Z,92048.41
2023-04-08T04:58:54.049Z,92053.06
2023-04-08T05:01:28.244Z,92053.56
2023-04-08T05:04:00.944Z,92058.72
2023-04-08T05:06:33.428Z,92061.31
2023-04-08T05:09:05.793Z,92061.81
2023-04-08T05:11:38.145Z,92062.81
2023-04-08T05:14:10.488Z,92061.75
2023-04-08T05:16:43.453Z,92068.13
2023-04-08T05:19:15.743Z,92058.34
2023-04-08T05:21:48.047Z,92053.72
2023-04-08T05:24:20.358Z,92057.31
2023-04-08T05:26:52.716Z,92064.81
2023-04-08T05:29:25.146Z,92065.88
2023-04-08T05:31:58.780Z,92065.16
2023-04-08T05:34:31.600Z,92065.47
2023-04-08T05:37:03.911Z,92062.66
2023-04-08T05:39:36.433Z,92060.88
2023-04-08T05:42:09.088Z,92065.53
2023-04-08T05:44:43.170Z,92060.91
2023-04-08T05:47:16.103Z,92058.38
2023-04-08T05:49:50.218Z,92066.94
2023-04-08T05:52:23.559Z,92065.66
2023-04-08T05:54:55.831Z,92065.44
2023-04-08T05:57:28.157Z,92059.53
2023-04-08T06:00:00.484Z,92058.50
2023-04-08T06:02:33.909Z,92055.44
2023-04-08T06:05:06.872Z,92054.66
2023-04-08T06:07:39.288Z,92053.88
2023-04-08T06:10:11.713Z,92051.03
2023-04-08T06:12:44.082Z,92054.66
2023-04-08T06:15:16.511Z,92053.88
2023-04-08T06:17:49.472Z,92047.41
2023-04-08T06:20:21.791Z,92053.88
2023-04-08T06:22:54.114Z,92058.00
2023-04-08T06:25:26.636Z,92053.13
2023-04-08T06:27:58.902Z,92058.53
2023-04-08T06:30:31.271Z,92059.34
2023-04-08T06:33:04.391Z,92052.84
2023-04-08T06:35:37.124Z,92062.94
2023-04-08T06:38:09.496Z,92055.69
2023-04-08T06:40:41.935Z,92063.94
2023-04-08T06:43:14.202Z,92053.09
2023-04-08T06:45:46.739Z,92060.56
2023-04-08T06:48:20.032Z,92068.56
2023-04-08T06:50:52.315Z,92068.56
2023-04-08T06:53:25.257Z,92071.16
2023-04-08T06:55:57.563Z,92070.16
2023-04-08T06:58:30.199Z,92070.66
2023-04-08T07:01:02.701Z,92067.84
2023-04-08T07:03:35.707Z,92069.13
2023-04-08T07:06:08.064Z,92075.59
2023-04-08T07:08:40.391Z,92072.25
2023-04-08T07:11:12.676Z,92077.13
2023-04-08T07:13:45.008Z,92070.66
2023-04-08T07:16:17.345Z,92071.47
2023-04-08T07:18:51.119Z,92086.19
2023-04-08T07:21:23.522Z,92089.50
2023-04-08T07:23:55.897Z,92089.75
2023-04-08T07:26:28.248Z,92092.34
2023-04-08T07:29:00.941Z,92095.16
2023-04-08T07:31:33.389Z,92088.16
2023-04-08T07:34:06.347Z,92101.34
2023-04-08T07:36:38.637Z,92102.09
2023-04-08T07:39:10.974Z,92104.38
2023-04-08T07:41:43.368Z,92109.84
2023-04-08T07:44:16.561Z,92106.97
2023-04-08T07:46:50.925Z,92109.50
2023-04-08T07:49:23.904Z,92090.97
2023-04-08T07:51:56.846Z,92111.06
2023-04-08T07:54:31.192Z,92109.25
2023-04-08T07:57:03.592Z,92121.44
2023-04-08T07:59:36.243Z,92116.47
2023-04-08T08:02:08.694Z,92123.22
2023-04-08T08:04:41.842Z,92126.28
2023-04-08T08:07:14.486Z,92120.53
2023-04-08T08:09:46.768Z,92117.88
2023-04-08T08:12:19.120Z,92123.75
2023-04-08T08:14:54.099Z,92120.94
2023-04-08T08:17:29.446Z,92124.84
2023-04-08T08:20:04.236Z,92121.88
2023-04-08T08:22:47.137Z,92120.84
2023-04-08T08:25:28.853Z,92127.78
2023-04-08T08:28:01.439Z,92128.28
2023-04-08T08:30:34.185Z,92128.81
2023-04-08T08:33:06.646Z,92132.13
2023-04-08T08:35:39.660Z,92125.75
2023-04-08T08:38:13.126Z,92123.94
2023-04-08T08:40:45.554Z,92117.22
2023-04-08T08:43:18.041Z,92121.13
2023-04-08T08:45:50.571Z,92113.72
2023-04-08T08:48:23.073Z,92120.06
2023-04-08T08:50:56.074Z,92122.38
2023-04-08T08:53:30.377Z,92127.28
2023-04-08T08:58:38.874Z,92129.94
2023-04-08T09:01:30.989Z,92134.22
2023-04-08T09:04:13.264Z,92133.34
2023-04-08T09:06:47.073Z,92130.91
2023-04-08T09:09:20.797Z,92134.91
2023-04-08T09:12:03.477Z,92124.53
2023-04-08T09:14:35.813Z,92130.53
2023-04-08T09:17:08.244Z,92124.53
2023-04-08T09:20:05.797Z,92130.56
2023-04-08T09:22:58.585Z,92124.81
2023-04-08T09:25:32.154Z,92126.19
2023-04-08T09:28:04.863Z,92124.72
2023-04-08T09:30:37.201Z,92125.47
2023-04-08T09:33:09.548Z,92131.97
2023-04-08T09:35:43.066Z,92115.25
2023-04-08T09:38:16.580Z,92120.09
2023-04-08T09:40:49.151Z,92120.16
2023-04-08T09:43:24.713Z,92118.09
2023-04-08T09:46:00.967Z,92114.72
2023-04-08T09:48:42.650Z,92116.91
2023-04-08T09:51:16.291Z,92114.63
2023-04-08T09:53:55.632Z,92111.34
2023-04-08T09:56:38.918Z,92112.41
2023-04-08T09:59:16.639Z,92101.78
2023-04-08T10:01:53.184Z,92103.88
2023-04-08T10:04:27.629Z,92111.13
2023-04-08T10:07:04.691Z,92105.25
2023-04-08T10:09:38.347Z,92100.53
2023-04-08T10:12:10.676Z,92101.88
2023-04-08T10:15:17.898Z,92069.25
2023-04-08T10:17:50.926Z,92097.84
2023-04-08T10:20:43.114Z,92093.56
2023-04-08T10:23:17.202Z,92090.75
2023-04-08T10:25:50.146Z,92080.09
2023-04-08T10:28:26.488Z,92085.22
2023-04-08T10:30:58.823Z,92084.91
2023-04-08T10:33:32.892Z,92081.81
2023-04-08T10:36:12.755Z,92074.69
2023-04-08T10:38:46.602Z,92071.19
2023-04-08T10:41:24.445Z,92071.09
2023-04-08T10:43:56.819Z,92061.75
2023-04-08T10:46:29.301Z,92057.63
2023-04-08T10:49:01.942Z,92047.66
2023-04-08T10:51:34.849Z,92044.91
2023-04-08T10:54:07.915Z,92054.09
2023-04-08T10:56:48.895Z,92043.91
2023-04-08T10:59:28.312Z,92048.91
2023-04-08T11:02:13.515Z,92046.03
2023-04-08T11:04:47.608Z,92037.88
2023-04-08T11:07:20.433Z,92038.59
2023-04-08T11:09:52.722Z,92028.38
2023-04-08T11:12:26.562Z,92028.22
2023-04-08T11:14:58.929Z,92015.50
2023-04-08T11:17:33.950Z,92011.19
2023-04-08T11:20:08.834Z,92015.16
2023-04-08T11:22:41.316Z,92019.56
2023-04-08T11:25:14.242Z,92017.72
2023-04-08T11:27:49.721Z,92011.13
2023-04-08T11:30:23.362Z,92010.81
2023-04-08T11:32:57.254Z,92005.94
2023-04-08T11:35:30.199Z,91999.31
2023-04-08T11:38:04.914Z,92000.69
2023-04-08T11:40:37.356Z,91990.22
2023-04-08T11:43:11.385Z,91978.28
2023-04-08T11:45:43.792Z,91982.59
2023-04-08T11:48:17.323Z,91991.06
2023-04-08T11:51:03.209Z,91986.63
2023-04-08T11:53:37.010Z,91994.00
2023-04-08T11:56:16.707Z,91991.84
2023-04-08T11:58:49.534Z,91992.34
2023-04-08T12:01:21.781Z,91989.22
2023-04-08T12:03:58.849Z,91998.00
2023-04-08T12:06:31.796Z,91983.41
2023-04-08T12:09:04.423Z,91992.47
2023-04-08T12:11:36.722Z,91984.78
2023-04-08T12:14:10.089Z,91974.75
2023-04-08T12:16:42.729Z,91984.56
2023-04-08T12:19:15.472Z,91984.91
2023-04-08T12:21:47.734Z,91982.91
2023-04-08T12:24:20.431Z,91992.19
2023-04-08T12:26:52.691Z,91979.09
2023-04-08T12:29:25.628Z,91985.22
2023-04-08T12:31:58.212Z,91983.66
2023-04-08T12:34:30.834Z,91987.41
2023-04-08T12:37:03.219Z,91996.63
2023-04-08T12:39:35.602Z,91992.44
2023-04-08T12:42:08.388Z,91988.00
2023-04-08T12:44:41.512Z,91992.94
2023-04-08T12:47:13.793Z,91991.09
2023-04-08T12:49:49.779Z,91985.00
2023-04-08T12:52:23.487Z,91985.53
2023-04-08T12:54:55.966Z,91990.00
2023-04-08T12:57:28.323Z,91995.50
2023-04-08T13:00:01.645Z,91985.25
2023-04-08T13:02:34.109Z,91987.50
2023-04-08T13:05:06.767Z,91989.44
2023-04-08T13:07:39.102Z,91981.41
2023-04-08T13:10:11.407Z,91980.84
2023-04-08T13:12:43.770Z,91987.28
2023-04-08T13:15:16.836Z,91997.63
2023-04-08T13:17:49.166Z,92005.22
2023-04-08T13:20:25.001Z,91993.56
2023-04-08T13:22:57.365Z,91988.06
2023-04-08T13:25:29.782Z,91981.41
2023-04-08T13:28:02.632Z,91977.88
2023-04-08T13:30:35.687Z,91988.00
2023-04-08T13:33:08.035Z,91978.03
2023-04-08T13:35:40.620Z,91983.28
2023-04-08T13:38:13.145Z,91985.47
2023-04-08T13:40:46.704Z,91977.81
2023-04-08T13:43:20.529Z,91970.56
2023-04-08T13:45:53.880Z,91968.34
2023-04-08T13:48:26.420Z,91967.78
2023-04-08T13:50:58.878Z,91972.88
2023-04-08T13:53:31.641Z,91966.00
2023-04-08T13:56:04.406Z,91967.16
2023-04-08T13:58:37.128Z,91962.56
2023-04-08T14:01:10.876Z,91958.44
2023-04-08T14:03:43.825Z,91961.53
2023-04-08T14:06:16.833Z,91954.44
2023-04-08T14:08:50.157Z,91962.09
2023-04-08T14:11:23.634Z,91961.50
2023-04-08T14:13:56.684Z,91961.56
2023-04-08T14:16:32.092Z,91960.94
2023-04-08T14:19:04.773Z,91963.94
2023-04-08T14:21:38.468Z,91959.47
2023-04-08T14:24:10.988Z,91956.56
2023-04-08T14:26:43.449Z,91959.81
2023-04-08T14:29:15.963Z,91962.25
2023-04-08T14:31:49.736Z,91967.34
2023-04-08T14:34:22.991Z,91967.25
2023-04-08T14:36:55.864Z,91971.69
2023-04-08T14:39:28.430Z,91980.31
2023-04-08T14:42:01.798Z,91976.63
2023-04-08T14:44:34.615Z,91989.22
2023-04-08T14:47:08.056Z,91986.72
2023-04-08T14:49:40.711Z,91988.88
2023-04-08T14:52:13.500Z,91987.78
2023-04-08T14:54:47.690Z,91986.63
2023-04-08T14:57:20.240Z,91990.97
2023-04-08T14:59:52.841Z,91989.75
2023-04-08T15:02:27.100Z,91989.25
2023-04-08T15:04:59.855Z,91985.88
2023-04-08T15:07:32.825Z,91980.94
2023-04-08T15:10:06.939Z,91982.84
2023-04-08T15:12:40.222Z,91995.00
2023-04-08T15:15:13.244Z,91990.44
2023-04-08T15:17:46.879Z,91997.56
2023-04-08T15:20:19.587Z,91992.72
2023-04-08T15:22:52.365Z,91994.97
2023-04-08T15:25:25.358Z,91990.44
2023-04-08T15:27:57.865Z,91988.06
2023-04-08T15:30:34.595Z,91991.16
2023-04-08T15:33:08.169Z,91989.59
2023-04-08T15:35:41.049Z,91995.16
2023-04-08T15:38:13.573Z,91997.28
2023-04-08T15:40:48.062Z,91993.16
2023-04-08T15:43:20.830Z,91998.59
2023-04-08T15:45:53.310Z,91997.16
2023-04-08T15:48:26.358Z,91999.88
2023-04-08T15:50:58.801Z,92006.63
2023-04-08T15:53:31.999Z,92016.47
2023-04-08T15:56:04.997Z,92010.09
2023-04-08T15:58:37.443Z,92020.94
2023-04-08T16:01:10.068Z,92023.97
2023-04-08T16:03:43.306Z,92021.78
2023-04-08T16:06:15.888Z,92027.91
2023-04-08T16:08:49.419Z,92035.66
2023-04-08T16:11:23.194Z,92039.97
2023-04-08T16:13:55.534Z,92038.78
2023-04-08T16:16:28.228Z,92040.56
2023-04-08T16:19:01.625Z,92043.44
2023-04-08T16:21:34.343Z,92065.91
2023-04-08T16:24:07.381Z,92071.91
2023-04-08T16:26:40.828Z,92072.88
2023-04-08T16:29:13.280Z,92078.19
2023-04-08T16:31:46.451Z,92072.91
2023-04-08T16:34:19.633Z,92075.69
2023-04-08T16:36:52.850Z,92059.16
2023-04-08T16:39:25.614Z,92075.88
2023-04-08T16:41:59.056Z,92080.13
2023-04-08T16:44:31.791Z,92072.75
2023-04-08T16:47:05.040Z,92076.53
2023-04-08T16:49:38.238Z,92084.53
2023-04-08T16:52:10.571Z,92085.50
2023-04-08T16:54:44.606Z,92077.53
2023-04-08T16:57:18.242Z,92079.03
2023-04-08T16:59:51.559Z,92078.72
2023-04-08T17:02:25.090Z,92083.09
2023-04-08T17:04:59.292Z,92066.81
2023-04-08T17:07:32.863Z,92079.22
2023-04-08T17:10:06.815Z,92086.72
2023-04-08T17:12:39.797Z,92084.41
2023-04-08T17:15:12.385Z,92088.31
2023-04-08T17:17:45.589Z,92095.13
2023-04-08T17:20:20.002Z,92094.56
2023-04-08T17:22:52.616Z,92089.94
2023-04-08T17:25:25.834Z,92095.13
2023-04-08T17:27:58.400Z,92097.13
2023-04-08T17:30:30.875Z,92091.97
2023-04-08T17:33:04.186Z,92100.97
2023-04-08T17:35:37.675Z,92103.13
2023-04-08T17:38:10.421Z,92109.88
2023-04-08T17:40:43.638Z,92119.41
2023-04-08T17:43:17.939Z,92115.63
2023-04-08T17:45:51.650Z,92111.56
2023-04-08T17:48:24.202Z,92132.25
2023-04-08T17:51:02.730Z,92132.31
2023-04-08T17:53:35.519Z,92140.41
2023-04-08T17:56:07.961Z,92135.22
2023-04-08T17:58:41.120Z,92138.53
2023-04-08T18:01:14.631Z,92138.09
2023-04-08T18:03:47.931Z,92140.69
2023-04-08T18:06:22.059Z,92145.66
2023-04-08T18:08:54.647Z,92152.91
2023-04-08T18:11:27.007Z,92153.84
2023-04-08T18:13:59.450Z,92155.91
2023-04-08T18:16:32.732Z,92159.25
2023-04-08T18:19:06.264Z,92156.97
2023-04-08T18:21:39.497Z,92163.41
2023-04-08T18:24:12.736Z,92157.94
2023-04-08T18:26:49.150Z,92164.16
2023-04-08T18:29:26.774Z,92164.75
2023-04-08T18:31:59.119Z,92165.50
2023-04-08T18:34:31.792Z,92166.28
2023-04-08T18:37:07.188Z,92174.06
2023-04-08T18:39:40.335Z,92167.38
2023-04-08T18:42:12.727Z,92171.28
2023-04-08T18:44:45.064Z,92172.88
2023-04-08T18:47:18.075Z,92177.81
2023-04-08T18:49:51.096Z,92178.88
2023-04-08T18:52:25.044Z,92179.94
2023-04-08T18:55:00.050Z,92182.22
2023-04-08T18:57:34.731Z,92184.56
2023-04-08T19:00:09.222Z,92183.28
2023-04-08T19:02:42.038Z,92184.31
2023-04-08T19:05:14.932Z,92190.56
2023-04-08T19:07:48.273Z,92193.16
2023-04-08T19:10:22.501Z,92192.91
2023-04-08T19:12:55.209Z,92193.88
2023-04-08T19:15:28.674Z,92197.28
2023-04-08T19:18:01.550Z,92196.22
2023-04-08T19:20:34.736Z,92199.38
2023-04-08T19:23:08.433Z,92200.94
2023-04-08T19:25:41.591Z,92198.88
2023-04-08T19:28:14.091Z,92194.31
2023-04-08T19:30:47.670Z,92188.84
2023-04-08T19:33:23.698Z,92192.72
2023-04-08T19:35:57.119Z,92194.78
2023-04-08T19:38:30.937Z,92196.31
2023-04-08T19:41:05.560Z,92204.34
2023-04-08T19:43:38.753Z,92198.91
2023-04-08T19:46:12.209Z,92200.81
2023-04-08T19:48:45.695Z,92202.59
2023-04-08T19:51:22.615Z,92202.91
2023-04-08T19:53:55.848Z,92200.81
2023-04-08T19:56:33.203Z,92208.09
2023-04-08T19:59:06.107Z,92211.66
2023-04-08T20:01:39.899Z,92203.66
2023-04-08T20:04:12.602Z,92214.88
2023-04-08T20:06:46.020Z,92208.66
2023-04-08T20:09:19.957Z,92204.56
2023-04-08T20:11:53.251Z,92208.78
2023-04-08T20:14:27.166Z,92204.44
2023-04-08T20:17:00.475Z,92207.78
2023-04-08T20:19:33.078Z,92206.00
2023-04-08T20:22:12.710Z,92199.50
2023-04-08T20:24:47.862Z,92195.41
2023-04-08T20:27:23.243Z,92202.66
2023-04-08T20:29:56.251Z,92203.94
2023-04-08T20:32:29.715Z,92202.94
2023-04-08T20:35:03.053Z,92196.22
2023-04-08T20:37:36.732Z,92189.75
2023-04-08T20:40:11.202Z,92202.72
2023-04-08T20:42:44.543Z,92200.41
2023-04-08T20:45:17.107Z,92194.94
2023-04-08T20:47:50.084Z,92186.66
2023-04-08T20:50:22.600Z,92201.13
2023-04-08T20:52:55.041Z,92193.63
2023-04-08T20:55:28.850Z,92201.16
2023-04-08T20:58:04.944Z,92199.63
2023-04-08T21:00:37.766Z,92201.72
2023-04-08T21:03:39.080Z,92198.34
2023-04-08T21:07:18.494Z,92198.09
2023-04-08T21:14:13.043Z,92187.47
2023-04-08T21:17:39.516Z,92189.59
2023-04-08T21:21:18.219Z,92180.28
2023-04-08T21:24:58.284Z,92186.50
2023-04-08T21:27:41.971Z,92180.03
2023-04-08T21:30:58.712Z,92180.03
2023-04-08T21:34:01.807Z,92176.66
2023-04-08T21:36:59.440Z,92177.44
2023-04-08T21:40:06.686Z,92177.44
2023-04-08T21:48:59.312Z,92167.28
2023-04-08T21:55:09.285Z,92173.53
2023-04-08T21:57:41.985Z,92171.22
2023-04-08T22:00:14.555Z,92173.25
2023-04-08T22:02:51.742Z,92178.44
2023-04-08T22:05:24.919Z,92173.00
2023-04-08T22:07:57.486Z,92176.09
2023-04-08T22:10:29.961Z,92175.34
2023-04-08T22:13:02.388Z,92171.69
2023-04-08T22:15:34.658Z,92182.09
2023-04-08T22:18:06.931Z,92172.78
2023-04-08T22:20:39.913Z,92176.41
2023-04-08T22:23:12.203Z,92179.50
2023-04-08T22:25:45.456Z,92169.94
2023-04-08T22:28:17.755Z,92173.81
2023-04-08T22:30:50.138Z,92163.16
2023-04-08T22:33:22.511Z,92172.22
2023-04-08T22:35:57.344Z,92177.88
2023-04-08T22:38:30.515Z,92171.94
2023-04-08T22:41:02.937Z,92147.13
2023-04-08T22:43:35.190Z,92171.94
2023-04-08T22:46:07.591Z,92173.50
2023-04-08T22:48:40.372Z,92169.84
2023-04-08T22:51:13.346Z,92171.41
2023-04-08T22:53:45.948Z,92170.09
2023-04-08T22:56:18.208Z,92180.75
2023-04-08T22:58:50.827Z,92176.34
2023-04-08T23:01:23.353Z,92177.38
2023-04-08T23:03:55.689Z,92169.88
2023-04-08T23:06:28.736Z,92167.28
2023-04-08T23:09:01.416Z,92158.75
2023-04-08T23:11:33.967Z,92157.47
2023-04-08T23:14:06.326Z,92154.34
2023-04-08T23:16:38.735Z,92147.63
2023-04-08T23:19:11.157Z,92153.31
2023-04-08T23:21:44.529Z,92153.03
2023-04-08T23:24:16.954Z,92150.19
2023-04-08T23:26:49.485Z,92146.06
2023-04-08T23:29:21.888Z,92143.50
2023-04-08T23:31:54.532Z,92135.97
2023-04-08T23:34:27.074Z,92147.13
2023-04-08T23:37:00.300Z,92143.97
2023-04-08T23:39:32.700Z,92146.88
2023-04-08T23:42:05.340Z,92148.19
2023-04-08T23:44:37.762Z,92148.19
2023-04-08T23:47:10.156Z,92134.19
2023-04-08T23:49:42.422Z,92146.34
2023-04-08T23:52:15.526Z,92146.88
2023-04-08T23:54:50.089Z,92152.28
2023-04-08T23:57:22.492Z,92145.03
2023-04-08T23:59:54.819Z,92146.59
